Time;durP1;ratioP1;P1;durP2;ratioP2;P2;SDS_P1;SDS_P2;PMS_P1;PMS_P2;Temp;Humidity;BMP_temperature;BMP_pressure;BME280_temperature;BME280_humidity;BME280_pressure;Samples;Min_cycle;Max_cycle;Signal;HPM_P1;HPM_P2
2022/04/24 00:00:14;;;;;;;11.80;11.00;;;8.20;99.90;;;;;;5160290;27;20530;-56
2022/04/24 00:02:53;;;;;;;12.02;10.93;;;8.20;99.90;;;;;;5160969;27;20709;-55
2022/04/24 00:05:32;;;;;;;7.53;6.93;;;8.10;99.90;;;;;;5160838;27;20597;-55
2022/04/24 00:08:10;;;;;;;10.65;9.85;;;8.10;99.90;;;;;;5147806;27;20551;-55
2022/04/24 00:10:48;;;;;;;11.55;10.65;;;8.10;99.90;;;;;;5160294;27;20605;-55
2022/04/24 00:13:27;;;;;;;11.50;10.50;;;8.10;99.90;;;;;;5160949;27;21082;-55
2022/04/24 00:16:07;;;;;;;10.00;9.20;;;8.00;99.90;;;;;;5134881;27;20566;-55
2022/04/24 00:18:46;;;;;;;12.18;11.27;;;7.90;99.90;;;;;;5098423;27;20673;-55
2022/04/24 00:21:24;;;;;;;12.27;11.27;;;7.90;99.90;;;;;;5148388;27;20569;-55
2022/04/24 00:24:03;;;;;;;9.50;8.65;;;7.80;99.90;;;;;;5160621;27;20628;-55
2022/04/24 00:26:41;;;;;;;10.18;9.20;;;7.90;99.90;;;;;;5116135;27;21025;-55
2022/04/24 00:29:19;;;;;;;12.45;11.60;;;7.90;99.90;;;;;;5139718;27;20592;-55
2022/04/24 00:31:59;;;;;;;12.52;11.63;;;7.90;99.90;;;;;;5160671;27;21221;-55
2022/04/24 00:34:38;;;;;;;12.73;11.82;;;7.90;99.90;;;;;;5115699;27;20617;-55
2022/04/24 00:37:17;;;;;;;13.07;12.07;;;7.90;99.90;;;;;;5155523;27;20620;-55
2022/04/24 00:39:55;;;;;;;9.98;9.18;;;7.90;99.90;;;;;;5160242;27;20582;-55
2022/04/24 00:42:33;;;;;;;12.30;11.40;;;7.80;99.90;;;;;;5166147;27;20667;-55
2022/04/24 00:45:12;;;;;;;13.45;12.35;;;7.90;99.90;;;;;;5168424;27;20598;-55
2022/04/24 00:47:56;;;;;;;12.18;11.18;;;8.00;99.90;;;;;;5105527;27;20599;-55
2022/04/24 00:50:38;;;;;;;12.82;11.98;;;7.90;99.90;;;;;;5160004;27;21038;-55
2022/04/24 00:53:19;;;;;;;8.43;7.60;;;7.80;99.90;;;;;;5160608;27;20565;-55
2022/04/24 00:55:58;;;;;;;12.55;11.65;;;7.90;99.90;;;;;;5177626;27;20600;-55
2022/04/24 00:58:37;;;;;;;12.65;11.55;;;7.80;99.90;;;;;;5143841;27;21246;-55
2022/04/24 01:01:15;;;;;;;11.98;11.00;;;7.70;99.90;;;;;;5159675;27;20879;-55
2022/04/24 01:03:54;;;;;;;14.57;13.63;;;7.80;99.90;;;;;;5160723;27;20783;-55
2022/04/24 01:06:36;;;;;;;14.48;13.38;;;7.90;99.90;;;;;;5160955;27;20545;-55
2022/04/24 01:09:17;;;;;;;9.55;8.57;;;8.00;99.90;;;;;;5160026;27;20597;-55
2022/04/24 01:11:57;;;;;;;10.98;10.07;;;7.90;99.90;;;;;;5160953;27;20932;-55
2022/04/24 01:14:37;;;;;;;12.77;11.75;;;7.80;99.90;;;;;;5160634;27;20551;-55
2022/04/24 01:17:16;;;;;;;13.23;12.27;;;7.70;99.90;;;;;;5155760;27;20610;-55
2022/04/24 01:19:55;;;;;;;14.15;12.95;;;7.70;99.90;;;;;;5160056;27;20545;-55
2022/04/24 01:22:34;;;;;;;12.88;11.77;;;7.70;99.90;;;;;;5115213;27;20613;-55
2022/04/24 01:25:15;;;;;;;12.38;11.27;;;7.70;99.90;;;;;;5160568;27;20749;-55
2022/04/24 01:27:53;;;;;;;14.65;13.45;;;7.60;99.90;;;;;;5129655;27;21083;-56
2022/04/24 01:30:31;;;;;;;11.93;10.98;;;7.60;99.90;;;;;;5159836;27;20532;-55
2022/04/24 01:33:10;;;;;;;13.27;12.30;;;7.60;99.90;;;;;;5156671;27;20534;-55
2022/04/24 01:35:48;;;;;;;10.93;9.98;;;7.50;99.90;;;;;;5137130;27;20578;-55
2022/04/24 01:38:28;;;;;;;12.75;11.75;;;7.60;99.90;;;;;;5092204;27;20634;-54
2022/04/24 01:41:08;;;;;;;10.25;9.35;;;7.70;99.90;;;;;;5160147;27;20662;-55
2022/04/24 01:43:47;;;;;;;13.70;12.63;;;7.70;99.90;;;;;;5160730;27;20546;-55
2022/04/24 01:46:26;;;;;;;13.00;11.90;;;7.80;99.90;;;;;;5115871;27;20667;-56
2022/04/24 01:49:04;;;;;;;11.23;10.35;;;7.80;99.90;;;;;;5160913;27;21121;-55
2022/04/24 01:51:44;;;;;;;12.95;11.90;;;7.80;99.90;;;;;;5160318;27;20549;-55
2022/04/24 01:54:22;;;;;;;12.95;11.80;;;7.80;99.90;;;;;;5151113;27;20620;-55
2022/04/24 01:57:00;;;;;;;13.65;12.65;;;7.80;99.90;;;;;;5161094;27;20613;-55
2022/04/24 01:59:38;;;;;;;11.52;10.43;;;7.90;99.90;;;;;;5159636;27;20658;-55
2022/04/24 02:02:17;;;;;;;14.18;12.88;;;8.00;99.90;;;;;;5160665;27;20631;-54
2022/04/24 02:04:55;;;;;;;12.82;11.93;;;7.90;99.90;;;;;;5157431;27;21075;-55
2022/04/24 02:07:33;;;;;;;13.23;12.23;;;7.70;99.90;;;;;;5129022;27;20836;-55
2022/04/24 02:10:12;;;;;;;14.98;13.88;;;7.60;99.90;;;;;;5159559;27;20530;-55
2022/04/24 02:12:50;;;;;;;13.00;11.90;;;7.50;99.90;;;;;;5115812;27;20544;-55
2022/04/24 02:15:28;;;;;;;13.68;12.55;;;7.50;99.90;;;;;;5160545;27;20521;-55
2022/04/24 02:18:08;;;;;;;10.25;9.43;;;7.60;99.90;;;;;;5103353;27;20676;-55
2022/04/24 02:20:47;;;;;;;13.40;12.43;;;7.70;99.90;;;;;;5159792;27;20525;-55
2022/04/24 02:23:26;;;;;;;14.63;13.52;;;7.70;99.90;;;;;;5160404;27;20841;-55
2022/04/24 02:26:04;;;;;;;12.82;11.88;;;7.70;99.90;;;;;;5160735;27;20613;-55
2022/04/24 02:28:42;;;;;;;12.55;11.65;;;7.70;99.90;;;;;;5098152;27;21018;-55
2022/04/24 02:31:20;;;;;;;14.02;13.02;;;7.60;99.90;;;;;;5159343;27;20545;-55
2022/04/24 02:33:58;;;;;;;12.45;11.35;;;7.60;99.90;;;;;;5159601;27;20656;-55
2022/04/24 02:36:37;;;;;;;13.00;11.82;;;7.60;99.90;;;;;;5116189;27;20579;-55
2022/04/24 02:39:15;;;;;;;13.48;12.48;;;7.70;99.90;;;;;;5159964;27;20557;-55
2022/04/24 02:41:53;;;;;;;13.32;12.32;;;7.70;99.90;;;;;;5115882;27;21014;-55
2022/04/24 02:44:31;;;;;;;13.00;11.88;;;7.70;99.90;;;;;;5160660;27;21171;-55
2022/04/24 02:47:10;;;;;;;13.25;12.25;;;7.60;99.90;;;;;;5155259;27;20556;-55
2022/04/24 02:49:48;;;;;;;14.05;13.05;;;7.60;99.90;;;;;;5159838;27;20612;-55
2022/04/24 02:52:26;;;;;;;13.48;12.27;;;7.50;99.90;;;;;;5148358;27;20521;-55
2022/04/24 02:55:05;;;;;;;12.25;11.45;;;7.60;99.90;;;;;;5160166;27;20605;-54
2022/04/24 02:57:45;;;;;;;14.02;12.93;;;7.80;99.90;;;;;;5151972;27;20541;-55
2022/04/24 03:00:25;;;;;;;13.90;12.80;;;7.90;99.90;;;;;;5160681;27;20678;-53
2022/04/24 03:03:04;;;;;;;14.95;13.90;;;8.00;99.90;;;;;;5160973;27;20604;-55
2022/04/24 03:05:42;;;;;;;14.55;13.15;;;8.00;99.90;;;;;;5157648;27;20620;-55
2022/04/24 03:08:21;;;;;;;14.57;13.15;;;8.00;99.90;;;;;;5131653;27;20669;-55
2022/04/24 03:11:00;;;;;;;30.92;24.75;;;7.90;99.90;;;;;;5159957;27;20608;-55
2022/04/24 03:13:38;;;;;;;8.02;7.38;;;8.00;99.90;;;;;;5160284;27;20552;-55
2022/04/24 03:16:17;;;;;;;15.07;13.77;;;8.00;99.90;;;;;;5161264;27;20522;-55
2022/04/24 03:18:55;;;;;;;14.82;13.73;;;7.90;99.90;;;;;;5135071;27;20591;-55
2022/04/24 03:21:34;;;;;;;12.10;11.10;;;7.70;99.90;;;;;;5157743;27;20989;-55
2022/04/24 03:24:13;;;;;;;13.13;12.02;;;7.70;99.90;;;;;;5160712;27;20604;-55
2022/04/24 03:26:51;;;;;;;14.48;13.32;;;7.80;99.90;;;;;;5161143;27;20506;-55
2022/04/24 03:29:29;;;;;;;13.15;12.15;;;7.90;99.90;;;;;;5160040;27;20609;-55
2022/04/24 03:32:09;;;;;;;14.52;13.18;;;8.00;99.90;;;;;;5160939;27;20962;-54
2022/04/24 03:34:47;;;;;;;14.50;13.40;;;7.90;99.90;;;;;;5155068;27;20620;-55
2022/04/24 03:37:26;;;;;;;14.27;13.20;;;8.00;99.90;;;;;;5151239;27;20701;-55
2022/04/24 03:40:05;;;;;;;13.52;12.43;;;8.10;99.90;;;;;;5160114;27;20541;-55
2022/04/24 03:42:44;;;;;;;14.35;13.40;;;8.10;99.90;;;;;;5160609;27;20547;-55
2022/04/24 03:45:22;;;;;;;14.98;13.68;;;8.20;99.90;;;;;;5112059;27;20679;-55
2022/04/24 03:48:00;;;;;;;16.05;14.80;;;8.30;99.90;;;;;;5149373;27;20825;-55
2022/04/24 03:50:38;;;;;;;14.15;13.10;;;8.30;99.90;;;;;;5159988;27;20639;-55
2022/04/24 03:53:18;;;;;;;15.80;14.70;;;8.30;99.90;;;;;;5160901;27;21353;-55
2022/04/24 03:55:56;;;;;;;13.63;12.63;;;8.30;99.90;;;;;;5161022;27;20521;-54
2022/04/24 03:58:35;;;;;;;14.23;13.10;;;8.40;99.90;;;;;;5144267;27;20853;-55
2022/04/24 04:01:13;;;;;;;13.48;12.27;;;8.30;99.90;;;;;;5159249;27;20714;-55
2022/04/24 04:03:51;;;;;;;13.55;11.90;;;8.30;99.90;;;;;;5160269;27;20596;-55
2022/04/24 04:06:29;;;;;;;14.13;12.98;;;8.30;99.90;;;;;;5116276;27;20560;-55
2022/04/24 04:09:07;;;;;;;12.98;12.07;;;8.50;99.90;;;;;;5160452;27;20608;-55
2022/04/24 04:11:46;;;;;;;12.05;11.15;;;8.60;99.90;;;;;;5160265;27;21034;-55
2022/04/24 04:14:24;;;;;;;12.82;11.82;;;8.60;99.90;;;;;;5111120;27;20968;-54
2022/04/24 04:17:02;;;;;;;11.63;10.73;;;8.70;99.90;;;;;;5161213;27;20560;-55
2022/04/24 04:19:40;;;;;;;12.82;11.73;;;8.70;99.90;;;;;;5158059;27;20608;-55
2022/04/24 04:22:19;;;;;;;12.93;11.85;;;8.70;99.90;;;;;;5115781;27;20534;-55
2022/04/24 04:24:57;;;;;;;9.68;8.68;;;8.70;99.90;;;;;;5116100;27;20567;-55
2022/04/24 04:27:35;;;;;;;9.85;8.98;;;8.80;99.90;;;;;;5153444;27;20553;-53
2022/04/24 04:30:15;;;;;;;11.88;10.77;;;8.90;99.90;;;;;;5114993;27;20510;-55
2022/04/24 04:32:55;;;;;;;9.20;8.35;;;9.00;99.90;;;;;;5168759;27;20536;-55
2022/04/24 04:35:33;;;;;;;14.82;13.73;;;9.00;99.90;;;;;;5160767;27;20525;-55
2022/04/24 04:38:11;;;;;;;12.00;11.07;;;9.00;99.90;;;;;;5165116;27;20569;-55
2022/04/24 04:40:49;;;;;;;13.70;12.40;;;9.10;99.90;;;;;;5159792;27;20970;-55
2022/04/24 04:43:28;;;;;;;14.80;13.80;;;9.10;99.90;;;;;;5159384;27;20554;-52
2022/04/24 04:46:07;;;;;;;14.75;13.55;;;9.20;99.90;;;;;;5087936;27;21239;-55
2022/04/24 04:48:46;;;;;;;13.38;12.20;;;9.20;99.90;;;;;;5142939;27;20964;-55
2022/04/24 04:51:24;;;;;;;15.32;14.13;;;9.30;99.90;;;;;;5154763;27;20624;-54
2022/04/24 04:54:02;;;;;;;16.27;15.07;;;9.30;99.90;;;;;;5161017;27;20613;-54
2022/04/24 04:56:40;;;;;;;12.88;11.85;;;9.40;99.90;;;;;;5111086;27;20545;-55
2022/04/24 04:59:19;;;;;;;16.02;14.68;;;9.50;99.90;;;;;;5147219;27;20625;-55
2022/04/24 05:01:57;;;;;;;16.10;14.93;;;9.60;99.90;;;;;;5136348;27;20613;-55
2022/04/24 05:04:35;;;;;;;13.00;11.80;;;9.70;99.90;;;;;;5116150;27;20542;-55
2022/04/24 05:07:14;;;;;;;13.30;12.20;;;9.70;99.90;;;;;;5153835;27;20557;-55
2022/04/24 05:09:53;;;;;;;16.38;15.10;;;9.80;99.90;;;;;;5109848;27;20690;-54
2022/04/24 05:12:31;;;;;;;17.83;16.38;;;10.00;99.90;;;;;;5157703;27;20520;-55
2022/04/24 05:15:13;;;;;;;16.33;15.20;;;10.00;99.90;;;;;;5113847;27;20605;-55
2022/04/24 05:17:53;;;;;;;14.70;13.45;;;10.00;99.90;;;;;;5148574;27;20622;-55
2022/04/24 05:20:31;;;;;;;13.45;12.35;;;10.00;99.90;;;;;;5163543;27;20544;-55
2022/04/24 05:23:09;;;;;;;15.15;14.18;;;10.00;99.90;;;;;;5154485;27;21110;-54
2022/04/24 05:25:48;;;;;;;15.15;13.98;;;10.00;99.90;;;;;;5140063;27;20887;-55
2022/04/24 05:28:25;;;;;;;15.77;14.60;;;10.00;99.90;;;;;;5141961;27;20562;-54
2022/04/24 05:31:05;;;;;;;13.43;12.23;;;9.90;99.90;;;;;;5159448;27;20651;-55
2022/04/24 05:33:43;;;;;;;14.10;13.15;;;9.90;99.90;;;;;;5164973;27;20626;-55
2022/04/24 05:36:22;;;;;;;14.75;13.73;;;9.90;99.90;;;;;;5160365;27;20694;-55
2022/04/24 05:39:00;;;;;;;14.48;13.27;;;9.90;99.90;;;;;;5140225;27;20566;-55
2022/04/24 05:41:38;;;;;;;14.38;13.18;;;9.80;99.90;;;;;;5139735;27;20587;-54
2022/04/24 05:44:16;;;;;;;16.52;15.32;;;9.80;99.90;;;;;;5149834;27;20965;-55
2022/04/24 05:46:55;;;;;;;14.82;13.73;;;9.70;99.90;;;;;;5140930;27;21024;-55
2022/04/24 05:49:33;;;;;;;14.50;13.50;;;9.70;99.90;;;;;;5136033;27;20527;-55
2022/04/24 05:52:11;;;;;;;12.93;11.75;;;9.70;99.90;;;;;;5160239;27;20528;-55
2022/04/24 05:54:49;;;;;;;11.65;10.52;;;9.80;99.90;;;;;;5160528;27;20534;-55
2022/04/24 05:57:28;;;;;;;15.27;13.95;;;9.80;99.90;;;;;;5153812;27;20546;-55
2022/04/24 06:00:08;;;;;;;12.88;10.75;;;9.90;99.90;;;;;;5160060;27;21190;-55
2022/04/24 06:02:51;;;;;;;14.15;12.98;;;10.00;99.90;;;;;;5160411;27;20526;-55
2022/04/24 06:05:29;;;;;;;13.80;12.77;;;10.00;99.90;;;;;;5160291;27;20550;-55
2022/04/24 06:08:07;;;;;;;14.27;13.18;;;10.10;99.90;;;;;;5148203;27;21007;-55
2022/04/24 06:10:45;;;;;;;14.27;13.13;;;10.10;99.90;;;;;;5160135;27;20686;-55
2022/04/24 06:13:23;;;;;;;12.90;11.70;;;10.10;99.90;;;;;;5136387;27;20547;-54
2022/04/24 06:16:02;;;;;;;4.60;3.92;;;10.00;99.90;;;;;;5176187;27;20664;-53
2022/04/24 06:18:40;;;;;;;12.07;11.07;;;9.90;99.90;;;;;;5142039;27;20614;-55
2022/04/24 06:21:18;;;;;;;13.68;12.57;;;9.80;99.90;;;;;;5159252;27;20527;-55
2022/04/24 06:23:56;;;;;;;14.43;13.02;;;9.70;99.90;;;;;;5160309;27;20971;-55
2022/04/24 06:26:34;;;;;;;9.07;6.82;;;9.70;99.90;;;;;;5116014;27;20612;-54
2022/04/24 06:29:13;;;;;;;14.32;12.75;;;9.70;99.90;;;;;;5161040;27;20528;-53
2022/04/24 06:31:51;;;;;;;14.45;13.18;;;9.60;99.90;;;;;;5160585;27;20528;-55
2022/04/24 06:34:29;;;;;;;16.30;14.90;;;9.60;99.90;;;;;;5161423;27;20600;-56
2022/04/24 06:37:07;;;;;;;16.27;14.85;;;9.60;99.90;;;;;;5157124;27;20549;-55
2022/04/24 06:39:46;;;;;;;16.23;14.40;;;9.60;99.90;;;;;;5160501;27;20904;-54
2022/04/24 06:42:24;;;;;;;16.70;15.30;;;9.60;99.90;;;;;;5160445;27;20601;-55
2022/04/24 06:45:02;;;;;;;15.63;14.18;;;9.60;99.90;;;;;;5159815;27;20542;-54
2022/04/24 06:47:40;;;;;;;14.48;13.38;;;9.60;99.90;;;;;;5152878;27;20543;-55
2022/04/24 06:50:19;;;;;;;15.02;13.77;;;9.50;99.90;;;;;;5173521;27;20635;-54
2022/04/24 06:52:58;;;;;;;14.38;13.15;;;9.50;99.90;;;;;;5157395;27;20978;-55
2022/04/24 06:55:38;;;;;;;15.02;13.85;;;9.40;99.90;;;;;;5154572;27;20530;-55
2022/04/24 06:58:19;;;;;;;16.23;14.70;;;9.30;99.90;;;;;;5147174;27;20551;-55
2022/04/24 07:00:58;;;;;;;14.70;13.40;;;9.20;99.90;;;;;;5156618;27;20959;-55
2022/04/24 07:03:37;;;;;;;13.93;12.55;;;9.10;99.90;;;;;;5162485;27;20616;-55
2022/04/24 07:06:16;;;;;;;14.85;13.77;;;9.00;99.90;;;;;;5113034;27;20971;-55
2022/04/24 07:08:54;;;;;;;15.57;14.38;;;8.90;99.90;;;;;;5141391;27;20566;-55
2022/04/24 07:11:33;;;;;;;16.42;15.10;;;8.90;99.90;;;;;;5160295;27;20537;-54
2022/04/24 07:14:12;;;;;;;14.98;13.65;;;8.90;99.90;;;;;;5161040;27;20905;-56
2022/04/24 07:16:50;;;;;;;13.18;12.10;;;8.80;99.90;;;;;;5140348;27;20622;-55
2022/04/24 07:19:29;;;;;;;12.15;11.25;;;8.80;99.90;;;;;;5158695;27;20609;-55
2022/04/24 07:22:07;;;;;;;13.35;12.45;;;8.80;99.90;;;;;;5158755;27;20541;-55
2022/04/24 07:24:45;;;;;;;12.70;11.73;;;8.70;99.90;;;;;;5157039;27;20535;-55
2022/04/24 07:27:23;;;;;;;13.15;12.15;;;8.70;99.90;;;;;;5098761;27;20964;-54
2022/04/24 07:30:01;;;;;;;14.20;13.20;;;8.70;99.90;;;;;;5153041;27;20633;-53
2022/04/24 07:32:41;;;;;;;17.42;13.95;;;8.70;99.90;;;;;;5158399;27;21149;-55
2022/04/24 07:35:22;;;;;;;13.10;12.20;;;8.70;99.90;;;;;;5159630;27;20604;-55
2022/04/24 07:38:01;;;;;;;14.20;12.98;;;8.70;99.90;;;;;;5105090;27;20551;-55
2022/04/24 07:40:40;;;;;;;16.38;15.15;;;8.70;99.90;;;;;;5158192;27;20693;-55
2022/04/24 07:43:19;;;;;;;15.05;13.95;;;8.70;99.90;;;;;;5148300;27;20836;-55
2022/04/24 07:45:57;;;;;;;16.05;14.30;;;8.80;99.90;;;;;;5140768;27;20622;-55
2022/04/24 07:48:35;;;;;;;15.05;13.95;;;8.80;99.90;;;;;;5140470;27;21191;-55
2022/04/24 07:51:14;;;;;;;13.25;12.23;;;8.80;99.90;;;;;;5112647;27;20584;-55
2022/04/24 07:53:52;;;;;;;16.25;14.95;;;8.90;99.90;;;;;;5160245;27;20629;-55
2022/04/24 07:56:30;;;;;;;13.27;12.18;;;9.10;99.90;;;;;;5136525;27;20548;-55
2022/04/24 07:59:09;;;;;;;13.65;12.45;;;9.30;99.90;;;;;;5159647;27;20662;-54
2022/04/24 08:01:51;;;;;;;13.23;12.32;;;9.40;99.90;;;;;;5148921;27;20656;-54
2022/04/24 08:04:30;;;;;;;14.05;13.02;;;9.60;99.90;;;;;;5160891;27;20528;-55
2022/04/24 08:07:08;;;;;;;12.18;11.27;;;9.70;99.90;;;;;;5155527;27;21082;-54
2022/04/24 08:09:46;;;;;;;11.32;10.48;;;9.70;99.90;;;;;;5151561;27;20625;-55
2022/04/24 08:12:24;;;;;;;8.80;8.00;;;9.70;99.90;;;;;;5145129;27;20524;-54
2022/04/24 08:15:03;;;;;;;14.02;12.93;;;9.60;99.90;;;;;;5138028;27;20527;-55
2022/04/24 08:17:43;;;;;;;12.63;11.63;;;9.50;99.90;;;;;;5149653;27;20559;-55
2022/04/24 08:20:21;;;;;;;12.73;11.93;;;9.40;99.90;;;;;;5144973;27;20605;-55
2022/04/24 08:23:01;;;;;;;12.10;11.18;;;9.30;99.90;;;;;;5139847;27;20549;-54
2022/04/24 08:25:40;;;;;;;12.35;11.55;;;9.30;99.90;;;;;;5155924;27;20899;-55
2022/04/24 08:28:20;;;;;;;13.57;12.32;;;9.20;99.90;;;;;;5133600;27;20553;-55
2022/04/24 08:30:58;;;;;;;14.00;13.00;;;9.20;99.90;;;;;;5114969;27;20734;-54
2022/04/24 08:33:36;;;;;;;13.90;12.80;;;9.10;99.90;;;;;;5159334;27;20609;-55
2022/04/24 08:36:15;;;;;;;12.77;11.77;;;9.10;99.90;;;;;;5160650;27;20604;-55
2022/04/24 08:38:53;;;;;;;15.68;14.40;;;9.00;99.90;;;;;;5141489;27;20542;-55
2022/04/24 08:41:36;;;;;;;18.63;17.08;;;9.00;99.90;;;;;;5115136;27;21393;-54
2022/04/24 08:44:14;;;;;;;18.83;16.98;;;9.00;99.90;;;;;;5155884;27;21024;-55
2022/04/24 08:46:53;;;;;;;16.38;15.13;;;9.00;99.90;;;;;;5144272;27;20650;-56
2022/04/24 08:49:33;;;;;;;16.08;14.88;;;9.00;99.90;;;;;;5159775;27;20639;-55
2022/04/24 08:52:14;;;;;;;12.90;11.80;;;9.00;99.90;;;;;;5160508;27;20634;-55
2022/04/24 08:54:53;;;;;;;13.43;12.32;;;9.10;99.90;;;;;;5176607;27;20660;-54
2022/04/24 08:57:32;;;;;;;11.73;10.80;;;9.00;99.90;;;;;;5153703;27;20662;-55
2022/04/24 09:00:12;;;;;;;14.55;13.30;;;9.10;99.90;;;;;;5160088;27;20520;-55
2022/04/24 09:02:52;;;;;;;14.73;13.73;;;9.20;99.90;;;;;;5160152;27;20637;-55
2022/04/24 09:05:30;;;;;;;12.82;11.82;;;9.50;99.90;;;;;;5160373;27;20943;-54
2022/04/24 09:08:09;;;;;;;9.18;8.52;;;10.00;99.90;;;;;;5103267;27;20647;-54
2022/04/24 09:10:54;;;;;;;6.25;5.65;;;10.30;99.90;;;;;;5160155;27;20962;-55
2022/04/24 09:14:14;;;;;;;7.47;6.75;;;10.30;99.90;;;;;;5159044;27;20600;-54
2022/04/24 09:16:46;;;;;;;5.57;5.22;;;10.50;99.90;;;;;;5160642;27;20601;-55
2022/04/24 09:19:25;;;;;;;4.40;4.10;;;11.00;99.90;;;;;;5114618;27;20727;-54
2022/04/24 09:22:07;;;;;;;5.13;4.80;;;11.50;99.90;;;;;;5160498;27;20568;-54
2022/04/24 09:24:48;;;;;;;6.88;6.47;;;12.00;99.90;;;;;;5160775;27;20559;-54
2022/04/24 09:27:28;;;;;;;6.95;6.45;;;12.50;99.90;;;;;;5154739;27;20618;-54
2022/04/24 09:30:11;;;;;;;3.58;3.38;;;12.60;99.90;;;;;;5132700;27;20685;-54
2022/04/24 09:32:51;;;;;;;4.05;3.75;;;12.90;99.90;;;;;;5134814;27;21030;-55
2022/04/24 09:35:31;;;;;;;2.10;2.00;;;13.50;99.90;;;;;;5160403;27;20608;-55
2022/04/24 09:38:13;;;;;;;2.00;1.90;;;13.80;99.90;;;;;;5103133;27;20697;-55
2022/04/24 09:40:52;;;;;;;1.90;1.80;;;14.00;99.90;;;;;;5160100;27;21180;-54
2022/04/24 09:43:30;;;;;;;1.50;1.40;;;14.30;99.90;;;;;;5160291;27;20741;-55
2022/04/24 09:46:09;;;;;;;1.70;1.60;;;14.50;99.90;;;;;;5140727;27;20534;-55
2022/04/24 09:48:53;;;;;;;1.98;1.88;;;14.60;99.90;;;;;;5149061;27;20575;-55
2022/04/24 09:51:36;;;;;;;1.15;1.15;;;14.80;99.90;;;;;;5115335;27;20579;-54
2022/04/24 09:54:15;;;;;;;0.88;0.88;;;14.20;99.90;;;;;;5160871;27;20636;-55
2022/04/24 09:56:55;;;;;;;0.82;0.82;;;13.70;99.90;;;;;;5160887;27;20945;-55
2022/04/24 09:59:36;;;;;;;0.80;0.80;;;13.50;99.90;;;;;;5159573;27;20532;-54
2022/04/24 10:02:17;;;;;;;0.60;0.60;;;13.40;99.90;;;;;;5158787;27;20589;-54
2022/04/24 10:04:56;;;;;;;1.25;0.85;;;13.40;99.90;;;;;;5160288;27;21053;-54
2022/04/24 10:07:34;;;;;;;0.95;0.95;;;13.20;99.90;;;;;;5153168;27;20524;-55
2022/04/24 10:10:13;;;;;;;0.73;0.73;;;13.00;99.90;;;;;;5139813;27;20622;-55
2022/04/24 10:13:06;;;;;;;1.38;1.27;;;12.80;99.90;;;;;;5115664;27;20663;-54
2022/04/24 10:15:50;;;;;;;2.42;0.90;;;12.90;99.90;;;;;;5138151;27;20963;-54
2022/04/24 10:18:51;;;;;;;1.67;0.65;;;13.10;99.90;;;;;;5142390;27;20325;-54
2022/04/24 10:21:55;;;;;;;0.50;0.50;;;14.00;99.90;;;;;;5115043;27;20855;-55
2022/04/24 10:24:43;;;;;;;2.28;0.85;;;14.90;99.90;;;;;;5160321;27;20772;-55
2022/04/24 10:27:22;;;;;;;0.80;0.80;;;15.60;99.90;;;;;;5110411;27;20630;-55
2022/04/24 10:30:01;;;;;;;0.80;0.70;;;16.10;99.90;;;;;;5159674;27;20666;-55
2022/04/24 10:32:44;;;;;;;0.47;0.47;;;16.60;99.90;;;;;;5166189;27;20602;-55
2022/04/24 10:35:25;;;;;;;0.82;0.45;;;17.30;99.90;;;;;;5131294;27;20604;-55
2022/04/24 10:38:24;;;;;;;0.30;0.30;;;17.50;99.90;;;;;;5133982;27;20613;-55
2022/04/24 10:41:05;;;;;;;0.38;0.38;;;17.70;99.90;;;;;;5159971;27;20543;-55
2022/04/24 10:43:46;;;;;;;0.30;0.30;;;17.80;99.90;;;;;;5115557;27;20726;-55
2022/04/24 10:46:29;;;;;;;0.50;0.50;;;17.90;99.90;;;;;;5157473;27;20535;-54
2022/04/24 10:49:12;;;;;;;0.30;0.30;;;17.90;99.90;;;;;;5160865;27;20545;-54
2022/04/24 10:52:01;;;;;;;0.40;0.40;;;17.40;99.90;;;;;;5140885;27;20559;-55
2022/04/24 10:54:40;;;;;;;0.68;0.68;;;16.90;99.90;;;;;;5114930;27;20809;-55
2022/04/24 10:57:20;;;;;;;0.75;0.75;;;16.40;99.90;;;;;;5143447;27;20673;-55
2022/04/24 11:00:00;;;;;;;0.35;0.35;;;16.00;99.90;;;;;;5159748;27;20542;-55
2022/04/24 11:02:38;;;;;;;1.27;0.60;;;15.60;99.90;;;;;;5160682;27;21030;-55
2022/04/24 11:05:22;;;;;;;0.20;0.20;;;15.50;99.90;;;;;;5115543;27;20620;-54
2022/04/24 11:08:05;;;;;;;0.32;0.32;;;15.50;99.90;;;;;;5149834;27;20851;-55
2022/04/24 11:10:46;;;;;;;0.20;0.20;;;15.60;99.90;;;;;;5115955;27;21039;-53
2022/04/24 11:13:26;;;;;;;2.45;0.50;;;15.70;99.90;;;;;;5156936;27;20530;-54
2022/04/24 11:16:06;;;;;;;0.20;0.20;;;15.80;99.90;;;;;;5152242;27;20729;-53
2022/04/24 11:18:48;;;;;;;0.47;0.30;;;15.90;99.90;;;;;;5140005;27;21011;-55
2022/04/24 11:21:28;;;;;;;0.50;0.50;;;16.10;99.90;;;;;;5171621;27;20616;-55
2022/04/24 11:24:08;;;;;;;0.30;0.30;;;16.60;99.90;;;;;;5156720;27;20569;-55
2022/04/24 11:26:49;;;;;;;0.32;0.32;;;16.70;99.90;;;;;;5160657;27;21118;-55
2022/04/24 11:29:27;;;;;;;1.27;1.08;;;16.80;99.90;;;;;;5172646;27;20532;-54
2022/04/24 11:32:08;;;;;;;0.30;0.30;;;16.80;99.90;;;;;;5153684;27;20583;-53
2022/04/24 11:34:48;;;;;;;0.40;0.40;;;16.30;99.90;;;;;;5160364;27;21050;-54
2022/04/24 11:37:27;;;;;;;1.45;0.38;;;15.60;99.90;;;;;;5154188;27;21106;-55
2022/04/24 11:40:07;;;;;;;0.85;0.68;;;15.00;99.90;;;;;;5159791;27;20979;-55
2022/04/24 11:42:45;;;;;;;0.65;0.40;;;14.50;99.90;;;;;;5136160;27;20615;-55
2022/04/24 11:51:24;;;;;;;1.20;1.08;;;13.00;99.90;;;;;;5159853;27;20593;-54
2022/04/24 11:54:03;;;;;;;0.55;0.55;;;12.60;99.90;;;;;;5160264;27;20514;-54
2022/04/24 11:56:44;;;;;;;0.63;0.63;;;12.40;99.90;;;;;;5115741;27;20544;-54
2022/04/24 11:59:23;;;;;;;0.70;0.45;;;12.40;99.90;;;;;;5103542;27;20709;-54
2022/04/24 12:02:02;;;;;;;0.60;0.60;;;12.40;99.90;;;;;;5160377;27;20537;-55
2022/04/24 12:04:40;;;;;;;0.70;0.70;;;12.20;99.90;;;;;;5160520;27;20624;-54
2022/04/24 12:07:19;;;;;;;0.50;0.50;;;12.00;99.90;;;;;;5144231;27;21105;-55
2022/04/24 12:10:02;;;;;;;0.75;0.50;;;11.80;99.90;;;;;;5160182;27;20559;-53
2022/04/24 12:12:48;;;;;;;0.68;0.50;;;11.60;99.90;;;;;;5161009;27;20637;-54
2022/04/24 12:15:26;;;;;;;1.17;1.10;;;11.60;99.90;;;;;;5156466;27;20538;-54
2022/04/24 12:18:06;;;;;;;0.30;0.30;;;11.50;99.90;;;;;;5146116;27;20615;-54
2022/04/24 12:20:47;;;;;;;0.73;0.73;;;11.60;99.90;;;;;;5159323;27;20529;-54
2022/04/24 12:23:28;;;;;;;0.77;0.77;;;11.70;99.90;;;;;;5160318;27;21031;-52
2022/04/24 12:26:11;;;;;;;0.40;0.40;;;11.80;99.90;;;;;;5177200;27;20623;-54
2022/04/24 12:28:49;;;;;;;0.40;0.40;;;11.90;99.90;;;;;;5097873;27;20626;-55
2022/04/24 12:31:29;;;;;;;0.50;0.50;;;12.10;99.90;;;;;;5115557;27;20593;-54
2022/04/24 12:34:08;;;;;;;0.47;0.47;;;12.20;99.90;;;;;;5160884;27;20567;-54
2022/04/24 12:36:51;;;;;;;0.45;0.45;;;12.40;99.90;;;;;;5139783;27;20562;-55
2022/04/24 12:39:32;;;;;;;0.30;0.30;;;12.70;99.90;;;;;;5160164;27;20885;-55
2022/04/24 12:42:17;;;;;;;0.52;0.52;;;12.80;99.90;;;;;;5160708;27;21073;-55
2022/04/24 12:44:55;;;;;;;1.10;0.47;;;12.80;99.90;;;;;;5158237;27;20524;-55
2022/04/24 12:47:34;;;;;;;0.50;0.50;;;12.70;99.90;;;;;;5107250;27;21111;-54
2022/04/24 12:50:12;;;;;;;0.50;0.50;;;12.70;99.90;;;;;;5160082;27;20944;-54
2022/04/24 12:52:52;;;;;;;0.75;0.75;;;12.70;99.90;;;;;;5160790;27;20844;-54
2022/04/24 12:55:30;;;;;;;1.08;0.65;;;12.80;99.90;;;;;;5115577;27;20611;-55
2022/04/24 12:58:14;;;;;;;0.70;0.70;;;12.80;99.90;;;;;;5148257;27;20550;-54
2022/04/24 13:00:53;;;;;;;0.70;0.70;;;12.70;99.90;;;;;;5167846;27;21091;-55
2022/04/24 13:03:32;;;;;;;0.50;0.50;;;12.70;99.90;;;;;;5160473;27;20761;-54
2022/04/24 13:06:11;;;;;;;0.20;0.20;;;12.70;99.90;;;;;;5160418;27;21038;-54
2022/04/24 13:08:52;;;;;;;0.50;0.50;;;12.60;99.90;;;;;;5139916;27;21091;-55
2022/04/24 13:11:31;;;;;;;0.32;0.32;;;12.50;99.90;;;;;;5138883;27;20638;-54
2022/04/24 13:14:09;;;;;;;0.40;0.40;;;12.30;99.90;;;;;;5160039;27;20532;-55
2022/04/24 13:19:54;;;;;;;0.40;0.40;;;12.00;99.90;;;;;;5158586;27;20613;-54
2022/04/24 13:22:32;;;;;;;0.50;0.50;;;11.80;99.90;;;;;;5160558;27;20534;-54
2022/04/24 13:25:11;;;;;;;0.57;0.57;;;11.70;99.90;;;;;;5160463;27;20558;-54
2022/04/24 13:27:49;;;;;;;0.50;0.50;;;11.50;99.90;;;;;;5151353;27;21180;-55
2022/04/24 13:30:27;;;;;;;0.70;0.70;;;11.30;99.90;;;;;;5161058;27;20890;-54
2022/04/24 13:33:05;;;;;;;1.23;0.88;;;11.20;99.90;;;;;;5136935;27;20530;-54
2022/04/24 13:35:44;;;;;;;0.80;0.80;;;11.10;99.90;;;;;;5160488;27;20537;-54
2022/04/24 13:38:23;;;;;;;0.82;0.82;;;10.90;99.90;;;;;;5143299;27;20525;-53
2022/04/24 13:41:02;;;;;;;0.90;0.90;;;10.90;99.90;;;;;;5159527;27;20553;-55
2022/04/24 13:43:41;;;;;;;0.77;0.77;;;10.90;99.90;;;;;;5174668;27;20607;-55
2022/04/24 13:46:21;;;;;;;0.98;0.98;;;10.80;99.90;;;;;;5160271;27;20371;-55
2022/04/24 13:48:59;;;;;;;1.50;1.40;;;10.70;99.90;;;;;;5140463;27;20622;-55
2022/04/24 13:51:38;;;;;;;1.70;1.60;;;10.70;99.90;;;;;;5160739;27;20542;-54